createdAt,value
2023-09-03T00:00:58.806Z,3.45
2023-09-03T00:03:26.514Z,3.47
2023-09-03T00:05:58.072Z,3.70
2023-09-03T00:08:28.506Z,3.53
2023-09-03T00:10:56.468Z,3.50
2023-09-03T00:13:24.236Z,3.80
2023-09-03T00:15:52.349Z,3.67
2023-09-03T00:18:20.614Z,3.70
2023-09-03T00:20:57.035Z,3.67
2023-09-03T00:23:25.200Z,3.80
2023-09-03T00:25:53.368Z,3.95
2023-09-03T00:28:21.595Z,3.78
2023-09-03T00:31:03.359Z,4.27
2023-09-03T00:33:31.947Z,4.03
2023-09-03T00:36:02.516Z,3.90
2023-09-03T00:38:30.504Z,4.10
2023-09-03T00:40:58.904Z,4.30
2023-09-03T00:43:28.757Z,3.93
2023-09-03T00:45:56.761Z,3.95
2023-09-03T00:48:28.294Z,3.95
2023-09-03T00:51:03.329Z,3.72
2023-09-03T00:53:34.762Z,4.80
2023-09-03T00:56:03.192Z,4.03
2023-09-03T00:58:31.587Z,3.45
2023-09-03T01:00:59.904Z,3.63
2023-09-03T01:03:28.147Z,3.47
2023-09-03T01:05:56.232Z,3.47
2023-09-03T01:08:24.906Z,3.50
2023-09-03T01:11:29.894Z,3.70
2023-09-03T01:14:01.723Z,3.47
2023-09-03T01:16:34.800Z,3.55
2023-09-03T01:19:10.366Z,4.05
2023-09-03T01:21:56.312Z,3.63
2023-09-03T01:24:36.007Z,4.20
2023-09-03T01:27:18.635Z,3.92
2023-09-03T01:29:47.323Z,3.92
2023-09-03T01:32:15.940Z,3.75
2023-09-03T01:34:45.393Z,3.73
2023-09-03T01:37:14.190Z,3.72
2023-09-03T01:39:41.853Z,3.67
2023-09-03T01:42:09.541Z,3.75
2023-09-03T01:44:37.858Z,3.58
2023-09-03T01:47:31.519Z,4.40
2023-09-03T01:50:50.889Z,3.90
2023-09-03T01:53:27.487Z,4.10
2023-09-03T01:55:58.753Z,4.30
2023-09-03T01:58:31.572Z,4.07
2023-09-03T02:01:02.228Z,3.90
2023-09-03T02:03:31.614Z,3.88
2023-09-03T02:05:59.356Z,8.25
2023-09-03T02:08:27.036Z,4.10
2023-09-03T02:10:54.815Z,3.70
2023-09-03T02:13:23.000Z,4.20
2023-09-03T02:15:51.562Z,3.90
2023-09-03T02:18:19.985Z,3.90
2023-09-03T02:20:48.288Z,3.60
2023-09-03T02:23:17.452Z,3.65
2023-09-03T02:25:47.966Z,5.57
2023-09-03T02:28:16.059Z,8.90
2023-09-03T02:30:44.038Z,4.10
2023-09-03T02:33:12.027Z,4.10
2023-09-03T02:35:39.929Z,4.30
2023-09-03T02:38:07.836Z,4.20
2023-09-03T02:40:35.884Z,4.28
2023-09-03T02:43:05.902Z,4.10
2023-09-03T02:45:33.802Z,4.00
2023-09-03T02:48:02.639Z,4.30
2023-09-03T02:50:30.593Z,7.37
2023-09-03T02:52:58.689Z,4.43
2023-09-03T02:55:26.684Z,4.25
2023-09-03T02:57:54.614Z,4.43
2023-09-03T03:00:24.564Z,4.55
2023-09-03T03:02:53.678Z,4.33
2023-09-03T03:05:21.677Z,4.43
2023-09-03T03:07:49.609Z,4.70
2023-09-03T03:10:18.650Z,4.65
2023-09-03T03:12:46.583Z,5.40
2023-09-03T03:15:14.676Z,4.20
2023-09-03T03:17:42.545Z,4.22
2023-09-03T03:20:10.912Z,4.63
2023-09-03T03:22:38.505Z,3.78
2023-09-03T03:25:06.787Z,4.35
2023-09-03T03:27:35.747Z,4.07
2023-09-03T03:30:03.719Z,4.10
2023-09-03T03:32:32.494Z,4.82
2023-09-03T03:35:00.378Z,4.40
2023-09-03T03:37:28.043Z,4.72
2023-09-03T03:39:55.783Z,4.50
2023-09-03T03:42:23.479Z,4.28
2023-09-03T03:44:51.109Z,3.97
2023-09-03T03:47:18.729Z,4.28
2023-09-03T03:49:46.380Z,4.38
2023-09-03T03:52:14.080Z,4.10
2023-09-03T03:54:41.760Z,4.35
2023-09-03T03:57:09.410Z,4.40
2023-09-03T03:59:37.807Z,3.90
2023-09-03T04:02:05.690Z,4.28
2023-09-03T04:04:33.402Z,4.03
2023-09-03T04:07:01.041Z,4.38
2023-09-03T04:09:28.611Z,4.35
2023-09-03T04:11:57.826Z,4.38
2023-09-03T04:14:25.502Z,4.32
2023-09-03T04:16:53.387Z,4.23
2023-09-03T04:19:21.362Z,4.65
2023-09-03T04:21:49.368Z,4.22
2023-09-03T04:24:17.282Z,4.35
2023-09-03T04:26:45.277Z,4.57
2023-09-03T04:29:13.282Z,4.33
2023-09-03T04:31:41.876Z,4.10
2023-09-03T04:34:10.187Z,4.53
2023-09-03T04:36:38.040Z,4.57
2023-09-03T04:39:06.395Z,4.22
2023-09-03T04:41:34.531Z,4.20
2023-09-03T04:44:10.306Z,4.22
2023-09-03T04:46:38.640Z,4.60
2023-09-03T04:49:06.532Z,4.53
2023-09-03T04:51:36.329Z,4.00
2023-09-03T04:54:04.574Z,4.47
2023-09-03T04:56:32.510Z,4.45
2023-09-03T04:59:00.419Z,4.65
2023-09-03T05:01:28.575Z,4.50
2023-09-03T05:03:56.515Z,4.88
2023-09-03T05:06:26.893Z,4.53
2023-09-03T05:08:54.742Z,4.50
2023-09-03T05:11:22.669Z,4.43
2023-09-03T05:13:50.659Z,4.43
2023-09-03T05:16:18.893Z,4.22
2023-09-03T05:18:46.893Z,4.60
2023-09-03T05:21:14.976Z,4.50
2023-09-03T05:23:47.910Z,4.10
2023-09-03T05:26:15.919Z,2.65
2023-09-03T05:28:43.836Z,2.20
2023-09-03T05:31:11.914Z,2.60
2023-09-03T05:33:41.025Z,2.30
2023-09-03T05:36:12.448Z,2.17
2023-09-03T05:38:44.401Z,2.58
2023-09-03T05:41:14.282Z,2.70
2023-09-03T05:43:42.175Z,2.13
2023-09-03T05:46:10.279Z,2.35
2023-09-03T05:48:38.431Z,2.10
2023-09-03T05:51:06.868Z,2.40
2023-09-03T05:53:35.260Z,2.70
2023-09-03T05:56:10.743Z,2.40
2023-09-03T05:58:39.624Z,2.45
2023-09-03T06:01:10.080Z,2.35
2023-09-03T06:03:39.888Z,2.15
2023-09-03T06:06:12.141Z,2.47
2023-09-03T06:08:40.152Z,2.30
2023-09-03T06:11:09.636Z,2.15
2023-09-03T06:13:38.270Z,2.40
2023-09-03T06:16:06.167Z,2.20
2023-09-03T06:18:34.194Z,2.20
2023-09-03T06:21:02.303Z,2.37
2023-09-03T06:23:30.156Z,2.13
2023-09-03T06:25:58.121Z,2.35
2023-09-03T06:28:29.558Z,2.30
2023-09-03T06:31:02.705Z,1.90
2023-09-03T06:33:31.935Z,2.20
2023-09-03T06:35:59.801Z,2.33
2023-09-03T06:38:27.736Z,2.40
2023-09-03T06:40:55.575Z,2.40
2023-09-03T06:43:23.459Z,2.50
2023-09-03T06:45:51.408Z,2.23
2023-09-03T06:48:19.968Z,3.42
2023-09-03T06:50:49.664Z,2.78
2023-09-03T06:53:17.683Z,3.08
2023-09-03T06:55:49.064Z,2.63
2023-09-03T06:58:17.019Z,2.50
2023-09-03T07:00:46.282Z,2.80
2023-09-03T07:03:16.055Z,2.50
2023-09-03T07:05:43.983Z,2.67
2023-09-03T07:08:11.933Z,2.70
2023-09-03T07:10:39.713Z,2.67
2023-09-03T07:13:09.990Z,2.20
2023-09-03T07:15:38.054Z,2.60
2023-09-03T07:18:06.307Z,2.40
2023-09-03T07:20:34.062Z,2.22
2023-09-03T07:23:01.945Z,2.60
2023-09-03T07:25:36.577Z,2.40
2023-09-03T07:28:04.714Z,2.42
2023-09-03T07:30:32.718Z,2.55
2023-09-03T07:33:00.445Z,2.47
2023-09-03T07:35:32.197Z,2.80
2023-09-03T07:37:59.964Z,2.75
2023-09-03T07:40:28.818Z,2.63
2023-09-03T07:42:56.471Z,2.40
2023-09-03T07:45:24.555Z,2.30
2023-09-03T07:47:52.466Z,3.70
2023-09-03T07:50:20.193Z,2.92
2023-09-03T07:52:47.810Z,2.40
2023-09-03T07:55:17.159Z,2.53
2023-09-03T07:57:45.034Z,2.15
2023-09-03T08:00:14.195Z,2.20
2023-09-03T08:02:41.994Z,2.00
2023-09-03T08:05:13.245Z,2.13
2023-09-03T08:07:41.012Z,2.30
2023-09-03T08:10:09.296Z,2.83
2023-09-03T08:12:37.004Z,2.30
2023-09-03T08:15:04.943Z,2.40
2023-09-03T08:17:33.882Z,2.53
2023-09-03T08:20:03.874Z,2.80
2023-09-03T08:22:32.989Z,2.58
2023-09-03T08:25:00.619Z,2.70
2023-09-03T08:27:28.214Z,2.70
2023-09-03T08:29:55.910Z,2.30
2023-09-03T08:32:24.041Z,2.50
2023-09-03T08:34:53.272Z,2.40
2023-09-03T08:37:21.310Z,2.40
2023-09-03T08:39:49.053Z,2.58
2023-09-03T08:42:17.156Z,2.30
2023-09-03T08:44:50.848Z,2.60
2023-09-03T08:47:18.923Z,2.47
2023-09-03T08:49:47.108Z,2.83
2023-09-03T08:52:17.376Z,3.00
2023-09-03T08:54:45.168Z,2.63
2023-09-03T08:57:13.487Z,2.20
2023-09-03T08:59:41.580Z,2.30
2023-09-03T09:02:14.256Z,2.50
2023-09-03T09:04:42.280Z,2.38
2023-09-03T09:07:11.270Z,2.42
2023-09-03T09:09:39.685Z,2.33
2023-09-03T09:12:29.712Z,2.65
2023-09-03T09:15:03.272Z,2.80
2023-09-03T09:17:38.295Z,2.47
2023-09-03T09:20:10.796Z,2.33
2023-09-03T09:22:43.157Z,2.47
2023-09-03T09:25:18.843Z,2.80
2023-09-03T09:27:47.850Z,3.00
2023-09-03T09:30:20.678Z,2.72
2023-09-03T09:32:49.273Z,2.53
2023-09-03T09:35:26.768Z,2.38
2023-09-03T09:37:54.440Z,2.90
2023-09-03T09:40:31.624Z,2.80
2023-09-03T09:43:02.280Z,2.80
2023-09-03T09:45:30.037Z,2.95
2023-09-03T09:48:08.711Z,2.80
2023-09-03T09:50:44.295Z,2.97
2023-09-03T09:53:28.492Z,4.97
2023-09-03T09:56:04.496Z,3.10
2023-09-03T09:58:39.957Z,3.10
2023-09-03T10:01:09.977Z,2.60
2023-09-03T10:03:50.951Z,2.65
2023-09-03T10:06:22.034Z,3.20
2023-09-03T10:08:52.989Z,3.20
2023-09-03T10:11:21.757Z,3.03
2023-09-03T10:13:50.484Z,3.08
2023-09-03T10:16:22.876Z,2.72
2023-09-03T10:18:52.057Z,2.70
2023-09-03T10:21:46.609Z,2.72
2023-09-03T10:24:20.591Z,3.00
2023-09-03T10:26:54.374Z,2.83
2023-09-03T10:29:24.897Z,3.25
2023-09-03T10:31:54.848Z,3.50
2023-09-03T10:34:23.008Z,3.47
2023-09-03T10:37:06.999Z,3.17
2023-09-03T10:39:36.544Z,2.97
2023-09-03T10:42:16.808Z,3.40
2023-09-03T10:44:55.758Z,2.80
2023-09-03T10:47:24.059Z,3.40
2023-09-03T10:49:53.837Z,3.25
2023-09-03T10:52:28.536Z,2.95
2023-09-03T10:55:17.469Z,3.42
2023-09-03T10:57:47.484Z,3.20
2023-09-03T11:00:18.336Z,3.40
2023-09-03T11:02:50.274Z,3.85
2023-09-03T11:05:27.939Z,3.50
2023-09-03T11:08:31.027Z,3.67
2023-09-03T11:11:00.567Z,4.10
2023-09-03T11:13:38.226Z,3.90
2023-09-03T11:16:07.003Z,3.95
2023-09-03T11:18:35.230Z,3.13
2023-09-03T11:21:03.389Z,3.67
2023-09-03T11:23:35.163Z,3.50
2023-09-03T11:26:07.308Z,3.40
2023-09-03T11:28:38.625Z,3.38
2023-09-03T11:31:06.750Z,2.90
2023-09-03T11:33:34.965Z,3.35
2023-09-03T11:36:02.950Z,3.10
2023-09-03T11:38:31.931Z,2.85
2023-09-03T11:41:00.585Z,3.38
2023-09-03T11:43:30.672Z,3.42
2023-09-03T11:46:05.371Z,3.75
2023-09-03T11:48:33.931Z,3.47
2023-09-03T11:51:21.860Z,3.30
2023-09-03T11:53:50.805Z,3.40
2023-09-03T11:56:21.898Z,3.20
2023-09-03T11:58:54.194Z,2.95
2023-09-03T12:01:22.476Z,3.50
2023-09-03T12:03:50.900Z,3.05
2023-09-03T12:06:19.791Z,3.30
2023-09-03T12:08:47.765Z,3.10
2023-09-03T12:11:15.865Z,3.65
2023-09-03T12:13:45.745Z,3.50
2023-09-03T12:16:17.353Z,3.45
2023-09-03T12:18:59.807Z,3.20
2023-09-03T12:21:38.339Z,2.95
2023-09-03T12:24:08.137Z,3.10
2023-09-03T12:26:37.438Z,3.10
2023-09-03T12:29:19.212Z,3.33
2023-09-03T12:31:47.380Z,3.08
2023-09-03T12:34:36.054Z,3.40
2023-09-03T12:37:05.258Z,3.45
2023-09-03T12:39:43.427Z,3.37
2023-09-03T12:42:12.089Z,2.90
2023-09-03T12:44:44.351Z,3.50
2023-09-03T12:47:12.431Z,3.03
2023-09-03T12:49:40.326Z,3.20
2023-09-03T12:52:08.211Z,3.10
2023-09-03T12:54:36.206Z,2.97
2023-09-03T12:57:04.097Z,2.97
2023-09-03T12:59:32.034Z,2.70
2023-09-03T13:01:59.970Z,2.55
2023-09-03T13:04:27.884Z,2.57
2023-09-03T13:06:55.665Z,2.70
2023-09-03T13:09:23.498Z,2.60
2023-09-03T13:11:51.488Z,2.50
2023-09-03T13:14:19.337Z,2.53
2023-09-03T13:16:47.256Z,2.67
2023-09-03T13:19:15.001Z,2.35
2023-09-03T13:21:42.747Z,2.20
2023-09-03T13:24:10.536Z,2.28
2023-09-03T13:26:38.513Z,2.40
2023-09-03T13:29:06.182Z,2.23
2023-09-03T13:31:34.091Z,2.35
2023-09-03T13:34:04.535Z,2.53
2023-09-03T13:36:32.327Z,2.45
2023-09-03T13:39:00.755Z,2.42
2023-09-03T13:41:28.648Z,2.47
2023-09-03T13:43:59.597Z,2.28
2023-09-03T13:46:27.928Z,2.20
2023-09-03T13:48:56.594Z,2.30
2023-09-03T13:51:24.286Z,2.92
2023-09-03T13:53:54.868Z,2.60
2023-09-03T13:56:22.576Z,2.80
2023-09-03T13:58:50.279Z,3.30
2023-09-03T14:01:19.383Z,3.50
2023-09-03T14:03:49.043Z,2.83
2023-09-03T14:06:17.916Z,2.30
2023-09-03T14:08:45.621Z,2.78
2023-09-03T14:11:13.369Z,2.40
2023-09-03T14:13:41.174Z,2.75
2023-09-03T14:16:15.536Z,2.70
2023-09-03T14:18:44.136Z,2.67
2023-09-03T14:21:11.777Z,2.50
2023-09-03T14:23:39.421Z,2.45
2023-09-03T14:26:14.056Z,2.20
2023-09-03T14:28:41.771Z,2.03
2023-09-03T14:31:09.397Z,2.20
2023-09-03T14:33:37.285Z,1.80
2023-09-03T14:36:05.289Z,1.80
2023-09-03T14:38:32.879Z,1.80
2023-09-03T14:41:00.564Z,1.70
2023-09-03T14:43:34.540Z,1.93
2023-09-03T14:46:02.747Z,2.10
2023-09-03T14:48:30.547Z,1.90
2023-09-03T14:50:58.697Z,2.00
2023-09-03T14:53:26.336Z,2.40
2023-09-03T14:55:53.973Z,3.00
2023-09-03T14:58:24.884Z,2.05
2023-09-03T15:00:52.694Z,2.20
2023-09-03T15:03:20.390Z,2.40
2023-09-03T15:05:48.220Z,2.40
2023-09-03T15:08:16.278Z,2.10
2023-09-03T15:10:43.951Z,2.15
2023-09-03T15:13:21.663Z,2.67
2023-09-03T15:15:51.564Z,2.70
2023-09-03T15:18:29.332Z,4.03
2023-09-03T15:20:57.359Z,4.37
2023-09-03T15:23:26.097Z,3.75
2023-09-03T15:25:54.299Z,3.00
2023-09-03T15:28:23.260Z,4.35
2023-09-03T15:30:52.025Z,2.75
2023-09-03T15:33:20.205Z,2.70
2023-09-03T15:35:48.158Z,3.53
2023-09-03T15:38:17.288Z,2.60
2023-09-03T15:40:45.292Z,3.17
2023-09-03T15:43:13.434Z,2.60
2023-09-03T15:45:41.896Z,2.40
2023-09-03T15:48:10.490Z,2.53
2023-09-03T15:50:42.844Z,2.65
2023-09-03T15:53:11.737Z,3.05
2023-09-03T15:55:41.067Z,2.20
2023-09-03T15:58:09.720Z,2.60
2023-09-03T16:00:39.809Z,2.80
2023-09-03T16:03:09.003Z,3.00
2023-09-03T16:05:37.018Z,2.80
2023-09-03T16:08:05.187Z,2.80
2023-09-03T16:10:38.461Z,2.83
2023-09-03T16:13:08.562Z,2.80
2023-09-03T16:15:44.156Z,3.20
2023-09-03T16:18:17.246Z,3.40
2023-09-03T16:20:45.187Z,3.13
2023-09-03T16:23:12.798Z,3.00
2023-09-03T16:25:40.487Z,3.33
2023-09-03T16:28:08.326Z,3.35
2023-09-03T16:30:36.041Z,2.97
2023-09-03T16:33:03.928Z,3.30
2023-09-03T16:35:33.847Z,3.50
2023-09-03T16:38:01.509Z,3.30
2023-09-03T16:40:32.254Z,3.65
2023-09-03T16:43:02.476Z,3.60
2023-09-03T16:45:30.093Z,3.75
2023-09-03T16:47:57.734Z,3.40
2023-09-03T16:50:25.347Z,3.08
2023-09-03T16:52:53.007Z,3.13
2023-09-03T16:55:20.607Z,3.97
2023-09-03T16:57:48.213Z,4.13
2023-09-03T17:00:15.977Z,3.70
2023-09-03T17:02:43.742Z,4.32
2023-09-03T17:05:11.415Z,4.60
2023-09-03T17:07:39.596Z,3.58
2023-09-03T17:10:08.692Z,3.92
2023-09-03T17:12:36.491Z,3.60
2023-09-03T17:15:04.332Z,3.97
2023-09-03T17:17:33.300Z,3.90
2023-09-03T17:20:01.564Z,4.18
2023-09-03T17:22:31.333Z,4.38
2023-09-03T17:24:58.915Z,3.40
2023-09-03T17:27:26.540Z,4.00
2023-09-03T17:29:55.667Z,3.80
2023-09-03T17:32:23.360Z,4.32
2023-09-03T17:34:52.959Z,4.55
2023-09-03T17:37:21.189Z,3.27
2023-09-03T17:39:48.783Z,4.05
2023-09-03T17:42:17.976Z,4.30
2023-09-03T17:44:46.677Z,4.35
2023-09-03T17:47:14.316Z,4.00
2023-09-03T17:49:42.294Z,4.30
2023-09-03T17:52:09.931Z,3.88
2023-09-03T17:54:37.579Z,4.10
2023-09-03T17:57:06.608Z,4.32
2023-09-03T17:59:34.312Z,4.95
2023-09-03T18:02:05.816Z,4.17
2023-09-03T18:04:36.739Z,4.05
2023-09-03T18:07:04.782Z,3.95
2023-09-03T18:09:32.604Z,4.90
2023-09-03T18:12:00.585Z,6.15
2023-09-03T18:14:28.790Z,4.40
2023-09-03T18:16:56.684Z,4.90
2023-09-03T18:19:24.350Z,4.43
2023-09-03T18:21:52.097Z,3.85
2023-09-03T18:24:20.012Z,3.97
2023-09-03T18:26:47.705Z,3.93
2023-09-03T18:29:15.352Z,3.50
2023-09-03T18:31:42.997Z,3.78
2023-09-03T18:34:10.611Z,4.07
2023-09-03T18:36:38.314Z,3.97
2023-09-03T18:39:06.248Z,4.37
2023-09-03T18:41:33.856Z,4.72
2023-09-03T18:44:01.466Z,4.20
2023-09-03T18:46:29.263Z,3.80
2023-09-03T18:48:57.536Z,3.67
2023-09-03T18:51:25.146Z,4.63
2023-09-03T18:53:52.796Z,3.38
2023-09-03T18:56:20.555Z,3.47
2023-09-03T18:58:48.194Z,3.28
2023-09-03T19:01:18.514Z,4.00
2023-09-03T19:03:48.851Z,3.60
2023-09-03T19:06:20.416Z,3.20
2023-09-03T19:08:48.534Z,3.10
2023-09-03T19:11:16.261Z,3.00
2023-09-03T19:13:43.911Z,3.70
2023-09-03T19:16:21.496Z,3.10
2023-09-03T19:18:49.867Z,3.30
2023-09-03T19:21:17.808Z,2.97
2023-09-03T19:23:45.608Z,3.55
2023-09-03T19:26:14.582Z,3.50
2023-09-03T19:28:43.001Z,3.80
2023-09-03T19:31:11.297Z,3.92
2023-09-03T19:33:39.321Z,3.38
2023-09-03T19:36:07.387Z,3.33
2023-09-03T19:38:35.923Z,3.60
2023-09-03T19:41:03.895Z,3.93
2023-09-03T19:43:31.789Z,3.53
2023-09-03T19:46:01.630Z,3.70
2023-09-03T19:48:35.356Z,3.50
2023-09-03T19:51:03.855Z,3.58
2023-09-03T19:53:33.082Z,3.80
2023-09-03T19:56:12.272Z,4.47
2023-09-03T19:58:40.310Z,3.88
2023-09-03T20:01:08.469Z,4.10
2023-09-03T20:03:36.573Z,3.63
2023-09-03T20:06:04.695Z,3.53
2023-09-03T20:08:33.281Z,4.35
2023-09-03T20:11:06.130Z,4.18
2023-09-03T20:13:34.303Z,3.70
2023-09-03T20:16:03.892Z,3.88
2023-09-03T20:18:32.112Z,3.50
2023-09-03T20:21:01.281Z,3.80
2023-09-03T20:23:29.740Z,3.58
2023-09-03T20:26:02.732Z,3.70
2023-09-03T20:28:45.178Z,3.85
2023-09-03T20:31:15.964Z,3.70
2023-09-03T20:33:44.511Z,3.92
2023-09-03T20:36:12.816Z,4.38
2023-09-03T20:38:41.636Z,4.20
2023-09-03T20:41:09.678Z,3.45
2023-09-03T20:43:37.397Z,3.53
2023-09-03T20:46:05.047Z,4.40
2023-09-03T20:48:33.711Z,3.90
2023-09-03T20:51:02.903Z,5.28
2023-09-03T20:53:31.665Z,5.00
2023-09-03T20:56:00.425Z,3.80
2023-09-03T20:58:28.820Z,4.00
2023-09-03T21:00:56.631Z,4.47
2023-09-03T21:03:24.498Z,4.00
2023-09-03T21:05:53.455Z,4.30
2023-09-03T21:08:23.615Z,4.10
2023-09-03T21:10:58.845Z,4.28
2023-09-03T21:13:27.202Z,3.80
2023-09-03T21:15:56.889Z,3.80
2023-09-03T21:18:26.702Z,3.40
2023-09-03T21:20:59.973Z,3.50
2023-09-03T21:23:28.118Z,3.22
2023-09-03T21:25:56.032Z,3.28
2023-09-03T21:28:24.282Z,4.07
2023-09-03T21:30:52.411Z,4.60
2023-09-03T21:33:20.527Z,3.23
2023-09-03T21:35:48.594Z,3.50
2023-09-03T21:38:16.494Z,3.13
2023-09-03T21:40:44.591Z,3.20
2023-09-03T21:43:12.512Z,3.25
2023-09-03T21:45:40.662Z,3.23
2023-09-03T21:48:08.881Z,3.25
2023-09-03T21:50:36.830Z,3.45
2023-09-03T21:53:05.123Z,3.33
2023-09-03T21:55:33.200Z,3.55
2023-09-03T21:58:01.124Z,3.43
2023-09-03T22:00:29.023Z,3.45
2023-09-03T22:02:57.010Z,3.60
2023-09-03T22:05:25.165Z,4.00
2023-09-03T22:07:53.111Z,3.10
2023-09-03T22:10:20.980Z,4.00
2023-09-03T22:12:48.817Z,3.60
2023-09-03T22:15:16.657Z,3.60
2023-09-03T22:17:44.438Z,4.05
2023-09-03T22:20:12.833Z,4.07
2023-09-03T22:22:40.462Z,4.40
2023-09-03T22:25:08.311Z,4.20
2023-09-03T22:27:35.993Z,4.10
2023-09-03T22:30:04.505Z,4.05
2023-09-03T22:32:34.015Z,4.38
2023-09-03T22:35:01.894Z,4.10
2023-09-03T22:37:33.216Z,4.43
2023-09-03T22:40:01.800Z,3.90
2023-09-03T22:42:31.464Z,4.20
2023-09-03T22:44:59.126Z,4.20
2023-09-03T22:47:29.824Z,3.67
2023-09-03T22:49:57.502Z,3.65
2023-09-03T22:52:25.157Z,3.95
2023-09-03T22:54:52.950Z,3.50
2023-09-03T22:57:20.600Z,4.13
2023-09-03T22:59:48.159Z,4.57
2023-09-03T23:02:15.917Z,4.43
2023-09-03T23:04:43.753Z,4.25
2023-09-03T23:07:11.460Z,4.55
2023-09-03T23:09:39.057Z,4.53
2023-09-03T23:12:06.865Z,4.97
2023-09-03T23:14:34.613Z,4.47
2023-09-03T23:17:02.467Z,4.75
2023-09-03T23:19:30.175Z,4.70
2023-09-03T23:21:57.911Z,4.75
2023-09-03T23:24:25.516Z,5.07
2023-09-03T23:26:53.144Z,3.45
2023-09-03T23:29:20.886Z,3.60
2023-09-03T23:31:48.636Z,4.00
2023-09-03T23:34:17.332Z,3.90
2023-09-03T23:36:45.151Z,4.17
2023-09-03T23:39:12.767Z,3.70
2023-09-03T23:41:40.410Z,4.10
2023-09-03T23:44:08.274Z,4.10
2023-09-03T23:46:35.996Z,4.00
2023-09-03T23:49:03.755Z,3.30
2023-09-03T23:51:34.460Z,3.08
2023-09-03T23:54:05.253Z,3.50
2023-09-03T23:56:33.206Z,3.50
2023-09-03T23:59:00.857Z,4.00
